Terminal Aerodrome Forecast
Issued by NWS Lake Charles, LA

Home | Current Version | Previous Version | Text Only | Print | Product List | Glossary On
Versions: 1 2 3 4 5 6 7 8 9 10 11 12 13 14 15 16 17 18 19 20 21
000
FTUS44 KLCH 261400 AAB
TAFLCH
TAF AMD
KLCH 261400Z 2614/2712 VRB03KT 1/2SM FG OVC002
     FM261500 18008KT P6SM BKN015
     FM261800 17012G18KT P6SM SCT025
     FM270100 16010KT P6SM BKN015
     FM270300 15010KT 3SM BR OVC007=

USA.gov is the U.S. government's official web portal to all federal, state and local government web resources and services.